sensor_id;sensor_type;location;lat;lon;timestamp;temperature;humidity
8591;DHT22;4333;48.322;14.340;2023-09-19T00:00:46;16.90;99.90
8591;DHT22;4333;48.322;14.340;2023-09-19T00:03:15;16.90;99.90
8591;DHT22;4333;48.322;14.340;2023-09-19T00:05:40;16.90;99.90
8591;DHT22;4333;48.322;14.340;2023-09-19T00:08:09;16.80;99.90
8591;DHT22;4333;48.322;14.340;2023-09-19T00:10:38;16.80;99.90
8591;DHT22;4333;48.322;14.340;2023-09-19T00:13:06;16.80;99.90
8591;DHT22;4333;48.322;14.340;2023-09-19T00:15:41;16.70;99.90
8591;DHT22;4333;48.322;14.340;2023-09-19T00:18:08;16.90;99.90
8591;DHT22;4333;48.322;14.340;2023-09-19T00:20:39;16.80;99.90
8591;DHT22;4333;48.322;14.340;2023-09-19T00:23:10;16.90;99.90
8591;DHT22;4333;48.322;14.340;2023-09-19T00:25:36;16.80;99.90
8591;DHT22;4333;48.322;14.340;2023-09-19T00:28:03;16.80;99.90
8591;DHT22;4333;48.322;14.340;2023-09-19T00:30:35;16.70;99.90
8591;DHT22;4333;48.322;14.340;2023-09-19T00:33:04;16.70;99.90
8591;DHT22;4333;48.322;14.340;2023-09-19T00:35:32;16.70;99.90
8591;DHT22;4333;48.322;14.340;2023-09-19T00:37:58;16.70;99.90
8591;DHT22;4333;48.322;14.340;2023-09-19T00:40:24;16.70;99.90
8591;DHT22;4333;48.322;14.340;2023-09-19T00:42:51;16.70;99.90
8591;DHT22;4333;48.322;14.340;2023-09-19T00:45:21;16.80;99.90
8591;DHT22;4333;48.322;14.340;2023-09-19T00:47:50;16.80;99.90
8591;DHT22;4333;48.322;14.340;2023-09-19T00:50:21;16.90;99.90
8591;DHT22;4333;48.322;14.340;2023-09-19T00:52:53;16.90;99.90
8591;DHT22;4333;48.322;14.340;2023-09-19T00:55:21;16.90;99.90
8591;DHT22;4333;48.322;14.340;2023-09-19T00:57:51;16.90;99.90
8591;DHT22;4333;48.322;14.340;2023-09-19T01:00:18;16.90;99.90
8591;DHT22;4333;48.322;14.340;2023-09-19T01:02:45;16.90;99.90
8591;DHT22;4333;48.322;14.340;2023-09-19T01:05:14;17.00;99.90
8591;DHT22;4333;48.322;14.340;2023-09-19T01:07:40;17.00;99.90
8591;DHT22;4333;48.322;14.340;2023-09-19T01:10:10;17.00;99.90
8591;DHT22;4333;48.322;14.340;2023-09-19T01:29:44;17.00;99.90
8591;DHT22;4333;48.322;14.340;2023-09-19T01:32:13;17.20;99.90
8591;DHT22;4333;48.322;14.340;2023-09-19T01:37:13;17.20;99.90
8591;DHT22;4333;48.322;14.340;2023-09-19T01:40:00;17.30;99.90
8591;DHT22;4333;48.322;14.340;2023-09-19T01:43:15;17.30;99.90
8591;DHT22;4333;48.322;14.340;2023-09-19T01:51:07;17.10;99.90
8591;DHT22;4333;48.322;14.340;2023-09-19T01:53:56;17.20;99.90
8591;DHT22;4333;48.322;14.340;2023-09-19T01:59:07;17.00;99.90
8591;DHT22;4333;48.322;14.340;2023-09-19T02:01:35;16.90;99.90
8591;DHT22;4333;48.322;14.340;2023-09-19T02:04:05;16.90;99.90
8591;DHT22;4333;48.322;14.340;2023-09-19T02:06:32;17.00;99.90
8591;DHT22;4333;48.322;14.340;2023-09-19T02:09:04;17.00;99.90
8591;DHT22;4333;48.322;14.340;2023-09-19T02:11:34;16.90;99.90
8591;DHT22;4333;48.322;14.340;2023-09-19T02:14:05;16.90;99.90
8591;DHT22;4333;48.322;14.340;2023-09-19T02:16:34;16.80;99.90
8591;DHT22;4333;48.322;14.340;2023-09-19T02:19:00;16.90;99.90
8591;DHT22;4333;48.322;14.340;2023-09-19T02:21:26;16.80;99.90
8591;DHT22;4333;48.322;14.340;2023-09-19T02:23:55;16.90;99.90
8591;DHT22;4333;48.322;14.340;2023-09-19T02:26:21;16.90;99.90
8591;DHT22;4333;48.322;14.340;2023-09-19T02:28:47;16.90;99.90
8591;DHT22;4333;48.322;14.340;2023-09-19T02:31:15;16.80;99.90
8591;DHT22;4333;48.322;14.340;2023-09-19T02:33:45;16.70;99.90
8591;DHT22;4333;48.322;14.340;2023-09-19T02:36:11;16.60;99.90
8591;DHT22;4333;48.322;14.340;2023-09-19T02:38:37;16.50;99.90
8591;DHT22;4333;48.322;14.340;2023-09-19T02:41:03;16.40;99.90
8591;DHT22;4333;48.322;14.340;2023-09-19T02:43:29;16.30;99.90
8591;DHT22;4333;48.322;14.340;2023-09-19T02:45:54;16.30;99.90
8591;DHT22;4333;48.322;14.340;2023-09-19T02:48:22;16.30;99.90
8591;DHT22;4333;48.322;14.340;2023-09-19T02:50:54;16.30;99.90
8591;DHT22;4333;48.322;14.340;2023-09-19T02:53:19;16.40;99.90
8591;DHT22;4333;48.322;14.340;2023-09-19T02:55:47;16.30;99.90
8591;DHT22;4333;48.322;14.340;2023-09-19T02:58:13;16.20;99.90
8591;DHT22;4333;48.322;14.340;2023-09-19T03:00:39;16.20;99.90
8591;DHT22;4333;48.322;14.340;2023-09-19T03:03:10;16.30;99.90
8591;DHT22;4333;48.322;14.340;2023-09-19T03:05:35;16.20;99.90
8591;DHT22;4333;48.322;14.340;2023-09-19T03:08:03;16.10;99.90
8591;DHT22;4333;48.322;14.340;2023-09-19T03:10:30;16.10;99.90
8591;DHT22;4333;48.322;14.340;2023-09-19T03:12:57;16.10;99.90
8591;DHT22;4333;48.322;14.340;2023-09-19T03:15:25;16.00;99.90
8591;DHT22;4333;48.322;14.340;2023-09-19T03:17:50;15.90;99.90
8591;DHT22;4333;48.322;14.340;2023-09-19T03:20:19;15.90;99.90
8591;DHT22;4333;48.322;14.340;2023-09-19T03:22:48;15.90;99.90
8591;DHT22;4333;48.322;14.340;2023-09-19T03:25:16;15.90;99.90
8591;DHT22;4333;48.322;14.340;2023-09-19T03:27:42;15.80;99.90
8591;DHT22;4333;48.322;14.340;2023-09-19T03:30:08;15.70;99.90
8591;DHT22;4333;48.322;14.340;2023-09-19T03:32:43;15.70;99.90
8591;DHT22;4333;48.322;14.340;2023-09-19T03:35:11;15.70;99.90
8591;DHT22;4333;48.322;14.340;2023-09-19T03:37:40;15.80;99.90
8591;DHT22;4333;48.322;14.340;2023-09-19T03:40:08;15.80;99.90
8591;DHT22;4333;48.322;14.340;2023-09-19T03:42:38;15.80;99.90
8591;DHT22;4333;48.322;14.340;2023-09-19T03:45:04;15.90;99.90
8591;DHT22;4333;48.322;14.340;2023-09-19T03:47:32;15.90;99.90
8591;DHT22;4333;48.322;14.340;2023-09-19T03:50:00;15.70;99.90
8591;DHT22;4333;48.322;14.340;2023-09-19T03:52:31;15.60;99.90
8591;DHT22;4333;48.322;14.340;2023-09-19T03:54:58;15.70;99.90
8591;DHT22;4333;48.322;14.340;2023-09-19T03:57:25;15.60;99.90
8591;DHT22;4333;48.322;14.340;2023-09-19T03:59:50;15.60;99.90
8591;DHT22;4333;48.322;14.340;2023-09-19T04:02:21;15.70;99.90
8591;DHT22;4333;48.322;14.340;2023-09-19T04:04:50;15.60;99.90
8591;DHT22;4333;48.322;14.340;2023-09-19T04:07:17;15.60;99.90
8591;DHT22;4333;48.322;14.340;2023-09-19T04:09:42;15.50;99.90
8591;DHT22;4333;48.322;14.340;2023-09-19T04:12:13;15.40;99.90
8591;DHT22;4333;48.322;14.340;2023-09-19T04:14:42;15.50;99.90
8591;DHT22;4333;48.322;14.340;2023-09-19T04:17:08;15.60;99.90
8591;DHT22;4333;48.322;14.340;2023-09-19T04:19:33;15.50;99.90
8591;DHT22;4333;48.322;14.340;2023-09-19T04:21:59;15.50;99.90
8591;DHT22;4333;48.322;14.340;2023-09-19T04:24:24;15.40;99.90
8591;DHT22;4333;48.322;14.340;2023-09-19T04:26:53;15.40;99.90
8591;DHT22;4333;48.322;14.340;2023-09-19T04:29:18;15.40;99.90
8591;DHT22;4333;48.322;14.340;2023-09-19T04:31:50;15.40;99.90
8591;DHT22;4333;48.322;14.340;2023-09-19T04:34:17;15.40;99.90
8591;DHT22;4333;48.322;14.340;2023-09-19T04:36:43;15.40;99.90
8591;DHT22;4333;48.322;14.340;2023-09-19T04:39:09;15.40;99.90
8591;DHT22;4333;48.322;14.340;2023-09-19T04:41:37;15.40;99.90
8591;DHT22;4333;48.322;14.340;2023-09-19T04:44:07;15.30;99.90
8591;DHT22;4333;48.322;14.340;2023-09-19T04:46:34;15.30;99.90
8591;DHT22;4333;48.322;14.340;2023-09-19T04:49:00;15.40;99.90
8591;DHT22;4333;48.322;14.340;2023-09-19T04:51:26;15.30;99.90
8591;DHT22;4333;48.322;14.340;2023-09-19T04:53:59;15.40;99.90
8591;DHT22;4333;48.322;14.340;2023-09-19T04:56:25;15.40;99.90
8591;DHT22;4333;48.322;14.340;2023-09-19T04:58:51;15.40;99.90
8591;DHT22;4333;48.322;14.340;2023-09-19T05:01:16;15.40;99.90
8591;DHT22;4333;48.322;14.340;2023-09-19T05:03:45;15.40;99.90
8591;DHT22;4333;48.322;14.340;2023-09-19T05:06:10;15.50;99.90
8591;DHT22;4333;48.322;14.340;2023-09-19T05:08:38;15.40;99.90
8591;DHT22;4333;48.322;14.340;2023-09-19T05:11:09;15.40;99.90
8591;DHT22;4333;48.322;14.340;2023-09-19T05:13:37;15.40;99.90
8591;DHT22;4333;48.322;14.340;2023-09-19T05:16:03;15.40;99.90
8591;DHT22;4333;48.322;14.340;2023-09-19T05:18:31;15.40;99.90
8591;DHT22;4333;48.322;14.340;2023-09-19T05:20:57;15.30;99.90
8591;DHT22;4333;48.322;14.340;2023-09-19T05:23:25;15.40;99.90
8591;DHT22;4333;48.322;14.340;2023-09-19T05:25:51;15.40;99.90
8591;DHT22;4333;48.322;14.340;2023-09-19T05:28:17;15.50;99.90
8591;DHT22;4333;48.322;14.340;2023-09-19T05:30:42;15.60;99.90
8591;DHT22;4333;48.322;14.340;2023-09-19T05:33:08;15.60;99.90
8591;DHT22;4333;48.322;14.340;2023-09-19T05:35:35;15.60;99.90
8591;DHT22;4333;48.322;14.340;2023-09-19T05:38:05;15.60;99.90
8591;DHT22;4333;48.322;14.340;2023-09-19T05:40:34;15.60;99.90
8591;DHT22;4333;48.322;14.340;2023-09-19T05:43:04;15.60;99.90
8591;DHT22;4333;48.322;14.340;2023-09-19T05:45:31;15.70;99.90
8591;DHT22;4333;48.322;14.340;2023-09-19T05:48:10;15.70;99.90
8591;DHT22;4333;48.322;14.340;2023-09-19T05:50:45;15.80;99.90
8591;DHT22;4333;48.322;14.340;2023-09-19T05:53:14;15.80;99.90
8591;DHT22;4333;48.322;14.340;2023-09-19T05:55:42;15.80;99.90
8591;DHT22;4333;48.322;14.340;2023-09-19T05:58:08;15.90;99.90
8591;DHT22;4333;48.322;14.340;2023-09-19T06:00:35;16.00;99.90
8591;DHT22;4333;48.322;14.340;2023-09-19T06:03:04;16.10;99.90
8591;DHT22;4333;48.322;14.340;2023-09-19T06:05:32;16.20;99.90
8591;DHT22;4333;48.322;14.340;2023-09-19T06:07:58;16.10;99.90
8591;DHT22;4333;48.322;14.340;2023-09-19T06:10:27;16.10;99.90
8591;DHT22;4333;48.322;14.340;2023-09-19T06:12:56;16.10;99.90
8591;DHT22;4333;48.322;14.340;2023-09-19T06:15:24;16.20;99.90
8591;DHT22;4333;48.322;14.340;2023-09-19T06:17:52;16.30;99.90
8591;DHT22;4333;48.322;14.340;2023-09-19T06:20:22;16.30;99.90
8591;DHT22;4333;48.322;14.340;2023-09-19T06:22:49;16.30;99.90
8591;DHT22;4333;48.322;14.340;2023-09-19T06:25:16;16.40;99.90
8591;DHT22;4333;48.322;14.340;2023-09-19T06:27:51;16.40;99.90
8591;DHT22;4333;48.322;14.340;2023-09-19T06:30:21;16.50;99.90
8591;DHT22;4333;48.322;14.340;2023-09-19T06:32:58;16.40;99.90
8591;DHT22;4333;48.322;14.340;2023-09-19T06:35:24;16.50;99.90
8591;DHT22;4333;48.322;14.340;2023-09-19T06:37:53;16.60;99.90
8591;DHT22;4333;48.322;14.340;2023-09-19T06:40:19;16.50;99.90
8591;DHT22;4333;48.322;14.340;2023-09-19T06:42:51;17.20;99.90
8591;DHT22;4333;48.322;14.340;2023-09-19T06:45:22;18.60;99.90
8591;DHT22;4333;48.322;14.340;2023-09-19T06:47:52;20.40;99.90
8591;DHT22;4333;48.322;14.340;2023-09-19T06:50:18;21.60;99.90
8591;DHT22;4333;48.322;14.340;2023-09-19T06:52:46;22.40;99.90
8591;DHT22;4333;48.322;14.340;2023-09-19T06:55:17;22.50;99.90
8591;DHT22;4333;48.322;14.340;2023-09-19T06:57:45;21.30;99.90
8591;DHT22;4333;48.322;14.340;2023-09-19T07:00:14;20.70;99.90
8591;DHT22;4333;48.322;14.340;2023-09-19T07:03:02;21.40;99.90
8591;DHT22;4333;48.322;14.340;2023-09-19T07:05:32;22.20;99.90
8591;DHT22;4333;48.322;14.340;2023-09-19T07:08:01;21.40;99.90
8591;DHT22;4333;48.322;14.340;2023-09-19T07:10:30;20.80;99.90
8591;DHT22;4333;48.322;14.340;2023-09-19T07:13:07;20.40;99.90
8591;DHT22;4333;48.322;14.340;2023-09-19T07:15:39;20.60;99.90
8591;DHT22;4333;48.322;14.340;2023-09-19T07:18:07;20.20;99.90
8591;DHT22;4333;48.322;14.340;2023-09-19T07:20:36;19.30;99.90
8591;DHT22;4333;48.322;14.340;2023-09-19T07:23:02;18.80;99.90
8591;DHT22;4333;48.322;14.340;2023-09-19T07:25:28;18.40;99.90
8591;DHT22;4333;48.322;14.340;2023-09-19T07:27:58;18.30;99.90
8591;DHT22;4333;48.322;14.340;2023-09-19T07:30:26;18.20;99.90
8591;DHT22;4333;48.322;14.340;2023-09-19T07:32:53;18.20;99.90
8591;DHT22;4333;48.322;14.340;2023-09-19T07:35:19;18.20;99.90
8591;DHT22;4333;48.322;14.340;2023-09-19T07:37:48;18.20;99.90
8591;DHT22;4333;48.322;14.340;2023-09-19T07:40:18;18.30;99.90
8591;DHT22;4333;48.322;14.340;2023-09-19T07:42:44;18.40;99.90
8591;DHT22;4333;48.322;14.340;2023-09-19T07:45:12;18.60;99.90
8591;DHT22;4333;48.322;14.340;2023-09-19T07:50:12;18.90;99.90
8591;DHT22;4333;48.322;14.340;2023-09-19T07:52:42;19.00;99.90
8591;DHT22;4333;48.322;14.340;2023-09-19T07:55:16;19.00;99.90
8591;DHT22;4333;48.322;14.340;2023-09-19T07:57:43;19.00;99.90
8591;DHT22;4333;48.322;14.340;2023-09-19T08:00:09;19.00;99.90
8591;DHT22;4333;48.322;14.340;2023-09-19T08:02:39;19.00;99.90
8591;DHT22;4333;48.322;14.340;2023-09-19T08:05:09;18.90;99.90
8591;DHT22;4333;48.322;14.340;2023-09-19T08:07:42;18.90;99.90
8591;DHT22;4333;48.322;14.340;2023-09-19T08:10:10;18.80;99.90
8591;DHT22;4333;48.322;14.340;2023-09-19T08:12:39;18.90;99.90
8591;DHT22;4333;48.322;14.340;2023-09-19T08:15:12;19.00;99.90
8591;DHT22;4333;48.322;14.340;2023-09-19T08:17:38;18.90;99.90
8591;DHT22;4333;48.322;14.340;2023-09-19T08:20:09;18.80;99.90
8591;DHT22;4333;48.322;14.340;2023-09-19T08:22:52;18.80;99.90
8591;DHT22;4333;48.322;14.340;2023-09-19T08:25:22;18.70;99.90
8591;DHT22;4333;48.322;14.340;2023-09-19T08:27:51;18.70;99.90
8591;DHT22;4333;48.322;14.340;2023-09-19T08:30:20;18.80;99.90
8591;DHT22;4333;48.322;14.340;2023-09-19T08:32:57;18.80;99.90
8591;DHT22;4333;48.322;14.340;2023-09-19T08:35:24;18.80;99.90
8591;DHT22;4333;48.322;14.340;2023-09-19T08:37:49;19.00;99.90
8591;DHT22;4333;48.322;14.340;2023-09-19T08:40:16;19.10;99.90
8591;DHT22;4333;48.322;14.340;2023-09-19T08:42:53;19.10;99.90
8591;DHT22;4333;48.322;14.340;2023-09-19T08:45:23;19.20;99.90
8591;DHT22;4333;48.322;14.340;2023-09-19T08:51:07;19.10;99.90
8591;DHT22;4333;48.322;14.340;2023-09-19T08:53:42;19.20;99.90
8591;DHT22;4333;48.322;14.340;2023-09-19T08:56:17;19.40;99.90
8591;DHT22;4333;48.322;14.340;2023-09-19T08:59:05;19.60;99.90
8591;DHT22;4333;48.322;14.340;2023-09-19T09:01:38;19.60;99.90
8591;DHT22;4333;48.322;14.340;2023-09-19T09:04:08;19.60;99.90
8591;DHT22;4333;48.322;14.340;2023-09-19T09:06:39;19.60;99.90
8591;DHT22;4333;48.322;14.340;2023-09-19T09:09:08;19.50;99.90
8591;DHT22;4333;48.322;14.340;2023-09-19T09:11:37;19.70;99.90
8591;DHT22;4333;48.322;14.340;2023-09-19T09:14:06;19.90;99.90
8591;DHT22;4333;48.322;14.340;2023-09-19T09:16:33;19.90;99.90
8591;DHT22;4333;48.322;14.340;2023-09-19T09:19:01;19.70;99.90
8591;DHT22;4333;48.322;14.340;2023-09-19T09:21:27;19.60;99.90
8591;DHT22;4333;48.322;14.340;2023-09-19T09:23:53;19.90;99.90
8591;DHT22;4333;48.322;14.340;2023-09-19T09:29:06;20.30;99.90
8591;DHT22;4333;48.322;14.340;2023-09-19T09:31:34;20.40;99.90
8591;DHT22;4333;48.322;14.340;2023-09-19T09:34:00;20.90;99.90
8591;DHT22;4333;48.322;14.340;2023-09-19T09:36:37;21.10;99.90
8591;DHT22;4333;48.322;14.340;2023-09-19T09:39:04;21.50;99.90
8591;DHT22;4333;48.322;14.340;2023-09-19T09:41:42;21.40;99.90
8591;DHT22;4333;48.322;14.340;2023-09-19T09:44:18;21.70;99.90
8591;DHT22;4333;48.322;14.340;2023-09-19T09:46:47;21.80;99.90
8591;DHT22;4333;48.322;14.340;2023-09-19T09:49:26;21.90;99.90
8591;DHT22;4333;48.322;14.340;2023-09-19T09:54:34;22.10;99.90
8591;DHT22;4333;48.322;14.340;2023-09-19T09:57:06;22.20;99.90
8591;DHT22;4333;48.322;14.340;2023-09-19T09:59:53;22.10;99.90
8591;DHT22;4333;48.322;14.340;2023-09-19T10:02:28;21.90;99.90
8591;DHT22;4333;48.322;14.340;2023-09-19T10:04:58;21.10;99.90
8591;DHT22;4333;48.322;14.340;2023-09-19T10:07:37;20.30;99.90
8591;DHT22;4333;48.322;14.340;2023-09-19T10:13:06;20.40;99.90
8591;DHT22;4333;48.322;14.340;2023-09-19T10:15:33;21.00;99.90
8591;DHT22;4333;48.322;14.340;2023-09-19T10:18:04;21.20;99.90
8591;DHT22;4333;48.322;14.340;2023-09-19T10:20:31;21.80;99.90
8591;DHT22;4333;48.322;14.340;2023-09-19T10:23:13;21.90;99.90
8591;DHT22;4333;48.322;14.340;2023-09-19T10:25:46;22.20;99.90
8591;DHT22;4333;48.322;14.340;2023-09-19T10:28:14;22.70;97.60
8591;DHT22;4333;48.322;14.340;2023-09-19T10:30:48;22.90;95.40
8591;DHT22;4333;48.322;14.340;2023-09-19T10:33:19;23.50;89.60
8591;DHT22;4333;48.322;14.340;2023-09-19T10:35:50;23.80;73.80
8591;DHT22;4333;48.322;14.340;2023-09-19T10:38:26;24.10;61.50
8591;DHT22;4333;48.322;14.340;2023-09-19T10:40:55;24.40;56.30
8591;DHT22;4333;48.322;14.340;2023-09-19T10:43:29;23.20;65.60
8591;DHT22;4333;48.322;14.340;2023-09-19T10:46:02;23.00;73.00
8591;DHT22;4333;48.322;14.340;2023-09-19T10:48:29;22.50;72.60
8591;DHT22;4333;48.322;14.340;2023-09-19T10:51:02;22.80;83.20
8591;DHT22;4333;48.322;14.340;2023-09-19T10:53:54;23.60;78.50
8591;DHT22;4333;48.322;14.340;2023-09-19T10:56:37;24.40;71.70
8591;DHT22;4333;48.322;14.340;2023-09-19T10:59:15;24.40;53.70
8591;DHT22;4333;48.322;14.340;2023-09-19T11:01:43;24.20;57.90
8591;DHT22;4333;48.322;14.340;2023-09-19T11:04:40;24.00;63.60
8591;DHT22;4333;48.322;14.340;2023-09-19T11:07:11;23.80;62.70
8591;DHT22;4333;48.322;14.340;2023-09-19T11:09:54;23.70;65.10
8591;DHT22;4333;48.322;14.340;2023-09-19T11:14:55;23.40;70.70
8591;DHT22;4333;48.322;14.340;2023-09-19T11:30:47;23.70;60.20
8591;DHT22;4333;48.322;14.340;2023-09-19T11:36:07;24.30;56.50
8591;DHT22;4333;48.322;14.340;2023-09-19T11:49:31;22.80;62.10
8591;DHT22;4333;48.322;14.340;2023-09-19T11:51:59;22.10;69.80
8591;DHT22;4333;48.322;14.340;2023-09-19T11:54:26;21.90;76.90
8591;DHT22;4333;48.322;14.340;2023-09-19T11:56:58;21.80;81.40
8591;DHT22;4333;48.322;14.340;2023-09-19T11:59:31;21.70;90.00
8591;DHT22;4333;48.322;14.340;2023-09-19T12:01:57;21.70;91.20
8591;DHT22;4333;48.322;14.340;2023-09-19T12:04:36;21.50;91.00
8591;DHT22;4333;48.322;14.340;2023-09-19T12:09:39;21.80;96.00
8591;DHT22;4333;48.322;14.340;2023-09-19T12:12:10;22.00;92.50
8591;DHT22;4333;48.322;14.340;2023-09-19T12:14:40;21.90;87.40
8591;DHT22;4333;48.322;14.340;2023-09-19T12:17:08;22.10;89.90
8591;DHT22;4333;48.322;14.340;2023-09-19T12:19:34;22.20;80.10
8591;DHT22;4333;48.322;14.340;2023-09-19T12:22:01;22.10;81.30
8591;DHT22;4333;48.322;14.340;2023-09-19T12:24:33;22.30;84.70
8591;DHT22;4333;48.322;14.340;2023-09-19T12:27:07;22.60;84.00
8591;DHT22;4333;48.322;14.340;2023-09-19T12:29:44;23.10;77.30
8591;DHT22;4333;48.322;14.340;2023-09-19T12:32:10;23.60;68.30
8591;DHT22;4333;48.322;14.340;2023-09-19T12:34:36;23.80;60.10
8591;DHT22;4333;48.322;14.340;2023-09-19T12:37:19;24.00;66.80
8591;DHT22;4333;48.322;14.340;2023-09-19T12:39:51;24.20;56.90
8591;DHT22;4333;48.322;14.340;2023-09-19T12:42:23;24.30;54.10
8591;DHT22;4333;48.322;14.340;2023-09-19T12:44:51;24.10;55.90
8591;DHT22;4333;48.322;14.340;2023-09-19T12:47:29;23.40;54.60
8591;DHT22;4333;48.322;14.340;2023-09-19T12:50:12;22.90;60.70
8591;DHT22;4333;48.322;14.340;2023-09-19T12:52:55;23.10;59.30
8591;DHT22;4333;48.322;14.340;2023-09-19T12:55:25;23.60;56.70
8591;DHT22;4333;48.322;14.340;2023-09-19T12:58:12;24.10;56.30
8591;DHT22;4333;48.322;14.340;2023-09-19T13:00:42;24.50;51.70
8591;DHT22;4333;48.322;14.340;2023-09-19T13:03:15;24.20;48.50
8591;DHT22;4333;48.322;14.340;2023-09-19T13:05:55;23.80;51.70
8591;DHT22;4333;48.322;14.340;2023-09-19T13:08:26;23.80;49.60
8591;DHT22;4333;48.322;14.340;2023-09-19T13:11:12;23.80;52.70
8591;DHT22;4333;48.322;14.340;2023-09-19T13:19:50;24.50;45.70
8591;DHT22;4333;48.322;14.340;2023-09-19T13:22:43;23.80;51.20
8591;DHT22;4333;48.322;14.340;2023-09-19T13:25:17;23.50;54.20
8591;DHT22;4333;48.322;14.340;2023-09-19T13:27:45;23.50;48.00
8591;DHT22;4333;48.322;14.340;2023-09-19T13:30:12;23.60;52.70
8591;DHT22;4333;48.322;14.340;2023-09-19T13:32:38;23.40;52.90
8591;DHT22;4333;48.322;14.340;2023-09-19T13:35:06;23.00;57.90
8591;DHT22;4333;48.322;14.340;2023-09-19T13:37:35;22.80;57.30
8591;DHT22;4333;48.322;14.340;2023-09-19T13:40:08;22.90;64.10
8591;DHT22;4333;48.322;14.340;2023-09-19T13:42:34;23.00;64.00
8591;DHT22;4333;48.322;14.340;2023-09-19T13:45:02;22.50;73.00
8591;DHT22;4333;48.322;14.340;2023-09-19T13:47:33;21.50;99.80
8591;DHT22;4333;48.322;14.340;2023-09-19T13:50:01;20.40;99.90
8591;DHT22;4333;48.322;14.340;2023-09-19T13:52:29;19.80;99.90
8591;DHT22;4333;48.322;14.340;2023-09-19T13:54:58;19.40;99.90
8591;DHT22;4333;48.322;14.340;2023-09-19T13:57:25;19.20;99.90
8591;DHT22;4333;48.322;14.340;2023-09-19T13:59:53;18.70;99.90
8591;DHT22;4333;48.322;14.340;2023-09-19T14:02:24;18.20;99.90
8591;DHT22;4333;48.322;14.340;2023-09-19T14:04:51;17.80;99.90
8591;DHT22;4333;48.322;14.340;2023-09-19T14:07:19;17.60;99.90
8591;DHT22;4333;48.322;14.340;2023-09-19T14:09:47;17.30;99.90
8591;DHT22;4333;48.322;14.340;2023-09-19T14:12:16;17.00;99.90
8591;DHT22;4333;48.322;14.340;2023-09-19T14:14:45;17.10;99.90
8591;DHT22;4333;48.322;14.340;2023-09-19T14:17:11;17.10;99.90
8591;DHT22;4333;48.322;14.340;2023-09-19T14:19:41;16.90;99.90
8591;DHT22;4333;48.322;14.340;2023-09-19T14:22:09;16.90;99.90
8591;DHT22;4333;48.322;14.340;2023-09-19T14:24:35;16.90;99.90
8591;DHT22;4333;48.322;14.340;2023-09-19T14:27:01;17.00;99.90
8591;DHT22;4333;48.322;14.340;2023-09-19T14:29:30;16.80;99.90
8591;DHT22;4333;48.322;14.340;2023-09-19T14:31:58;16.80;99.90
8591;DHT22;4333;48.322;14.340;2023-09-19T14:34:27;16.80;99.90
8591;DHT22;4333;48.322;14.340;2023-09-19T14:36:53;16.60;99.90
8591;DHT22;4333;48.322;14.340;2023-09-19T14:39:20;16.50;99.90
8591;DHT22;4333;48.322;14.340;2023-09-19T14:41:48;16.40;99.90
8591;DHT22;4333;48.322;14.340;2023-09-19T14:44:14;16.50;99.90
8591;DHT22;4333;48.322;14.340;2023-09-19T14:46:44;16.60;99.90
8591;DHT22;4333;48.322;14.340;2023-09-19T14:49:10;16.50;99.90
8591;DHT22;4333;48.322;14.340;2023-09-19T14:51:40;16.40;99.90
8591;DHT22;4333;48.322;14.340;2023-09-19T14:54:08;16.40;99.90
8591;DHT22;4333;48.322;14.340;2023-09-19T14:56:34;16.50;99.90
8591;DHT22;4333;48.322;14.340;2023-09-19T14:59:01;16.60;99.90
8591;DHT22;4333;48.322;14.340;2023-09-19T15:01:28;16.70;99.90
8591;DHT22;4333;48.322;14.340;2023-09-19T15:03:57;16.70;99.90
8591;DHT22;4333;48.322;14.340;2023-09-19T15:06:23;17.20;99.90
8591;DHT22;4333;48.322;14.340;2023-09-19T15:08:54;17.70;99.90
8591;DHT22;4333;48.322;14.340;2023-09-19T15:11:23;18.10;99.90
8591;DHT22;4333;48.322;14.340;2023-09-19T15:13:52;18.70;99.90
8591;DHT22;4333;48.322;14.340;2023-09-19T15:16:21;19.20;99.90
8591;DHT22;4333;48.322;14.340;2023-09-19T15:18:47;19.60;99.90
8591;DHT22;4333;48.322;14.340;2023-09-19T15:21:14;19.90;99.90
8591;DHT22;4333;48.322;14.340;2023-09-19T15:23:43;19.80;99.90
8591;DHT22;4333;48.322;14.340;2023-09-19T15:26:14;19.50;99.90
8591;DHT22;4333;48.322;14.340;2023-09-19T15:28:46;19.30;99.90
8591;DHT22;4333;48.322;14.340;2023-09-19T15:31:14;19.20;99.90
8591;DHT22;4333;48.322;14.340;2023-09-19T15:33:40;19.20;99.90
8591;DHT22;4333;48.322;14.340;2023-09-19T15:36:13;19.20;99.90
8591;DHT22;4333;48.322;14.340;2023-09-19T15:41:34;18.90;99.90
8591;DHT22;4333;48.322;14.340;2023-09-19T15:44:01;19.00;99.90
8591;DHT22;4333;48.322;14.340;2023-09-19T15:46:29;19.00;99.90
8591;DHT22;4333;48.322;14.340;2023-09-19T15:48:58;19.10;99.90
8591;DHT22;4333;48.322;14.340;2023-09-19T15:51:27;19.20;99.90
8591;DHT22;4333;48.322;14.340;2023-09-19T15:53:53;19.10;99.90
8591;DHT22;4333;48.322;14.340;2023-09-19T15:56:21;19.10;99.90
8591;DHT22;4333;48.322;14.340;2023-09-19T15:58:51;19.30;99.90
8591;DHT22;4333;48.322;14.340;2023-09-19T16:01:19;19.40;99.90
8591;DHT22;4333;48.322;14.340;2023-09-19T16:03:54;19.70;99.90
8591;DHT22;4333;48.322;14.340;2023-09-19T16:06:27;19.80;99.90
8591;DHT22;4333;48.322;14.340;2023-09-19T16:08:57;19.80;99.90
8591;DHT22;4333;48.322;14.340;2023-09-19T16:11:26;20.00;99.90
8591;DHT22;4333;48.322;14.340;2023-09-19T16:13:55;20.00;99.90
8591;DHT22;4333;48.322;14.340;2023-09-19T16:16:25;20.00;99.90
8591;DHT22;4333;48.322;14.340;2023-09-19T16:18:57;20.20;99.90
8591;DHT22;4333;48.322;14.340;2023-09-19T16:21:30;20.20;99.90
8591;DHT22;4333;48.322;14.340;2023-09-19T16:23:58;20.30;99.90
8591;DHT22;4333;48.322;14.340;2023-09-19T16:26:28;20.30;99.90
8591;DHT22;4333;48.322;14.340;2023-09-19T16:28:56;20.00;99.90
8591;DHT22;4333;48.322;14.340;2023-09-19T16:31:28;19.80;99.90
8591;DHT22;4333;48.322;14.340;2023-09-19T16:33:58;19.70;99.90
8591;DHT22;4333;48.322;14.340;2023-09-19T16:36:25;19.80;99.90
8591;DHT22;4333;48.322;14.340;2023-09-19T16:38:50;19.60;99.90
8591;DHT22;4333;48.322;14.340;2023-09-19T16:41:18;19.40;99.90
8591;DHT22;4333;48.322;14.340;2023-09-19T16:43:46;19.10;99.90
8591;DHT22;4333;48.322;14.340;2023-09-19T16:46:12;18.80;99.90
8591;DHT22;4333;48.322;14.340;2023-09-19T16:48:42;18.60;99.90
8591;DHT22;4333;48.322;14.340;2023-09-19T16:51:09;18.50;99.90
8591;DHT22;4333;48.322;14.340;2023-09-19T16:53:39;18.30;99.90
8591;DHT22;4333;48.322;14.340;2023-09-19T16:56:06;18.30;99.90
8591;DHT22;4333;48.322;14.340;2023-09-19T16:58:37;18.30;99.90
8591;DHT22;4333;48.322;14.340;2023-09-19T17:01:10;18.30;99.90
8591;DHT22;4333;48.322;14.340;2023-09-19T17:03:46;17.80;99.90
8591;DHT22;4333;48.322;14.340;2023-09-19T17:06:13;17.40;99.90
8591;DHT22;4333;48.322;14.340;2023-09-19T17:08:43;17.20;99.90
8591;DHT22;4333;48.322;14.340;2023-09-19T17:11:14;17.20;99.90
8591;DHT22;4333;48.322;14.340;2023-09-19T17:13:43;17.10;99.90
8591;DHT22;4333;48.322;14.340;2023-09-19T17:16:13;17.00;99.90
8591;DHT22;4333;48.322;14.340;2023-09-19T17:18:44;16.90;99.90
8591;DHT22;4333;48.322;14.340;2023-09-19T17:21:15;16.70;99.90
8591;DHT22;4333;48.322;14.340;2023-09-19T17:23:45;16.50;99.90